Time;durP1;ratioP1;P1;durP2;ratioP2;P2;SDS_P1;SDS_P2;PMS_P1;PMS_P2;Temp;Humidity;BMP_temperature;BMP_pressure;BME280_temperature;BME280_humidity;BME280_pressure;Samples;Min_cycle;Max_cycle;Signal;HPM_P1;HPM_P2
2021/03/19 00:00:17;;;;;;;35.10;22.92;;;128.50;1971.20;;;;;;4937161;29;20031;-63
2021/03/19 00:02:42;;;;;;;41.70;22.40;;;128.50;1945.60;;;;;;4953181;29;20050;-63
2021/03/19 00:05:11;;;;;;;38.97;23.20;;;128.50;1945.60;;;;;;4953637;29;20031;-63
2021/03/19 00:07:48;;;;;;;45.95;25.50;;;128.50;1971.20;;;;;;4978418;28;20053;-62
2021/03/19 00:10:17;;;;;;;42.05;24.60;;;128.50;1971.20;;;;;;5033331;28;20053;-63
2021/03/19 00:12:44;;;;;;;35.13;22.75;;;128.50;1971.20;;;;;;5033254;28;20032;-63
2021/03/19 00:15:10;;;;;;;34.55;22.83;;;128.50;1945.60;;;;;;5033317;28;20032;-63
2021/03/19 00:17:37;;;;;;;36.67;21.83;;;128.50;1971.20;;;;;;5033440;28;20108;-62
2021/03/19 00:20:06;;;;;;;34.72;23.10;;;128.50;1971.20;;;;;;5033415;28;20032;-63
2021/03/19 00:22:31;;;;;;;37.15;22.67;;;128.50;1971.20;;;;;;5033292;28;20045;-62
2021/03/19 00:24:57;;;;;;;38.70;23.15;;;128.50;1971.20;;;;;;5033419;28;20478;-62
2021/03/19 00:27:23;;;;;;;36.47;22.83;;;128.50;1945.60;;;;;;5033275;28;20061;-62
2021/03/19 00:29:48;;;;;;;35.47;22.27;;;128.50;1945.60;;;;;;5033208;28;20510;-63
2021/03/19 00:32:14;;;;;;;33.60;21.88;;;128.50;1945.60;;;;;;5033584;28;20026;-63
2021/03/19 00:34:40;;;;;;;39.20;22.08;;;128.50;1945.60;;;;;;5033197;28;20168;-64
2021/03/19 00:37:06;;;;;;;43.05;25.45;;;128.50;1945.60;;;;;;5032952;28;20030;-64
2021/03/19 00:39:31;;;;;;;40.50;24.58;;;128.50;1945.60;;;;;;5033130;28;20021;-63
2021/03/19 00:41:57;;;;;;;45.70;27.23;;;128.50;1971.20;;;;;;5033034;28;20075;-64
2021/03/19 00:44:23;;;;;;;41.13;25.77;;;128.50;1971.20;;;;;;5032942;28;20061;-63
2021/03/19 00:46:48;;;;;;;35.67;23.40;;;128.50;1971.20;;;;;;5032946;28;20030;-63
2021/03/19 00:49:14;;;;;;;39.28;24.55;;;128.40;1971.20;;;;;;5032810;28;20037;-63
2021/03/19 00:51:40;;;;;;;36.63;23.30;;;128.40;1971.20;;;;;;5032804;28;20100;-63
2021/03/19 00:54:06;;;;;;;36.90;22.65;;;128.40;1971.20;;;;;;5034137;28;20506;-63
2021/03/19 00:56:31;;;;;;;38.88;23.80;;;128.30;1971.20;;;;;;5036620;28;20032;-63
2021/03/19 00:58:57;;;;;;;39.95;23.50;;;128.40;1971.20;;;;;;5036343;28;20032;-64
2021/03/19 01:01:23;;;;;;;36.83;24.00;;;128.40;1971.20;;;;;;5036520;28;20030;-64
2021/03/19 01:03:48;;;;;;;32.33;22.15;;;128.40;1971.20;;;;;;5018703;28;20419;-63
2021/03/19 01:06:15;;;;;;;40.20;24.40;;;128.40;1971.20;;;;;;5036448;28;20025;-63
2021/03/19 01:08:41;;;;;;;33.65;22.33;;;128.40;1971.20;;;;;;5036259;28;20044;-63
2021/03/19 01:11:06;;;;;;;39.67;23.98;;;128.40;1971.20;;;;;;5035982;28;20372;-63
2021/03/19 01:13:32;;;;;;;38.50;24.42;;;128.40;1971.20;;;;;;5036033;28;20026;-63
2021/03/19 01:15:58;;;;;;;38.97;24.15;;;128.40;1971.20;;;;;;5036270;28;20111;-64
2021/03/19 01:18:29;;;;;;;43.60;25.45;;;128.40;1971.20;;;;;;5036398;28;20033;-64
2021/03/19 01:20:55;;;;;;;37.88;24.27;;;128.40;1971.20;;;;;;5036057;28;20022;-63
2021/03/19 01:23:21;;;;;;;36.30;23.08;;;128.40;1971.20;;;;;;5036376;28;20072;-63
2021/03/19 01:25:47;;;;;;;38.80;25.63;;;128.40;1971.20;;;;;;5035585;28;20087;-63
2021/03/19 01:28:16;;;;;;;39.55;25.38;;;128.40;1971.20;;;;;;5035699;28;20045;-63
2021/03/19 01:30:43;;;;;;;42.13;25.88;;;128.30;1971.20;;;;;;5036030;28;20029;-63
2021/03/19 01:33:10;;;;;;;41.03;26.38;;;128.30;1971.20;;;;;;5035888;28;20051;-63
2021/03/19 01:35:39;;;;;;;37.53;25.23;;;128.40;1971.20;;;;;;5035838;28;20021;-64
2021/03/19 01:38:06;;;;;;;42.55;25.45;;;128.30;1971.20;;;;;;5035772;28;20025;-63
2021/03/19 01:40:39;;;;;;;43.90;26.00;;;128.30;1971.20;;;;;;5035534;28;20025;-63
2021/03/19 01:43:12;;;;;;;39.05;24.27;;;128.30;1971.20;;;;;;5035400;28;20052;-63
2021/03/19 01:46:00;;;;;;;41.33;27.70;;;128.30;1971.20;;;;;;5035596;28;20036;-63
2021/03/19 01:49:03;;;;;;;43.92;25.92;;;128.30;1971.20;;;;;;5035228;28;20060;-62
2021/03/19 01:52:06;;;;;;;53.85;29.25;;;128.30;1971.20;;;;;;5035525;28;20026;-63
2021/03/19 01:55:09;;;;;;;53.10;30.52;;;128.20;1971.20;;;;;;5035580;28;20363;-63
2021/03/19 01:58:12;;;;;;;53.33;29.85;;;128.20;1971.20;;;;;;5035450;28;20510;-63
2021/03/19 02:01:15;;;;;;;51.13;28.50;;;128.20;1971.20;;;;;;5035225;28;20022;-63
2021/03/19 02:04:18;;;;;;;58.85;31.80;;;128.20;1971.20;;;;;;5035158;28;20025;-62
2021/03/19 02:07:20;;;;;;;55.78;31.25;;;128.20;1971.20;;;;;;5034401;28;20022;-64
2021/03/19 02:10:23;;;;;;;53.60;29.83;;;128.20;1971.20;;;;;;5035255;28;20045;-62
2021/03/19 02:13:26;;;;;;;46.90;27.95;;;128.20;1971.20;;;;;;5034939;28;20018;-62
2021/03/19 02:16:29;;;;;;;44.95;26.17;;;128.10;1971.20;;;;;;5034851;28;20021;-62
2021/03/19 02:19:32;;;;;;;49.65;27.23;;;128.20;1971.20;;;;;;5034907;28;20032;-63
2021/03/19 02:22:35;;;;;;;42.65;26.08;;;128.20;1971.20;;;;;;5034925;28;20030;-63
2021/03/19 02:25:38;;;;;;;39.58;24.90;;;128.10;1971.20;;;;;;5034545;28;20136;-62
2021/03/19 02:28:41;;;;;;;40.03;24.83;;;128.10;1971.20;;;;;;5034774;28;20116;-63
2021/03/19 02:31:10;;;;;;;39.03;23.85;;;128.00;1971.20;;;;;;5034689;28;20486;-63
2021/03/19 02:33:43;;;;;;;41.95;26.45;;;128.00;1971.20;;;;;;5035067;28;20348;-63
2021/03/19 02:36:09;;;;;;;47.53;28.55;;;128.00;1971.20;;;;;;5034725;28;20026;-63
2021/03/19 02:38:35;;;;;;;46.83;29.38;;;128.00;1971.20;;;;;;5034690;28;20059;-63
2021/03/19 02:41:01;;;;;;;45.47;27.27;;;128.00;1971.20;;;;;;5034540;28;20025;-63
2021/03/19 02:43:27;;;;;;;44.67;27.02;;;103.30;1945.60;;;;;;5034320;28;20017;-63
2021/03/19 02:45:53;;;;;;;45.00;27.92;;;103.30;1945.60;;;;;;5034463;28;20041;-63
2021/03/19 02:48:19;;;;;;;44.65;28.55;;;103.30;1945.60;;;;;;5034433;28;20393;-64
2021/03/19 02:50:45;;;;;;;46.38;28.80;;;128.00;1971.20;;;;;;5034310;28;20100;-63
2021/03/19 02:53:19;;;;;;;47.85;28.35;;;128.00;1996.80;;;;;;5034274;28;20029;-63
2021/03/19 02:55:45;;;;;;;49.88;29.40;;;103.30;1945.60;;;;;;5034312;28;20490;-63
2021/03/19 02:58:11;;;;;;;54.17;30.85;;;128.00;1971.20;;;;;;5034229;28;20029;-63
2021/03/19 03:00:37;;;;;;;43.35;27.67;;;128.00;1971.20;;;;;;5034090;28;20360;-63
2021/03/19 03:03:04;;;;;;;40.35;26.70;;;128.00;1971.20;;;;;;5034428;28;20097;-63
2021/03/19 03:05:30;;;;;;;44.60;28.55;;;128.00;1971.20;;;;;;5034154;28;20037;-63
2021/03/19 03:07:56;;;;;;;52.08;31.48;;;128.00;1971.20;;;;;;5034056;28;20029;-64
2021/03/19 03:10:25;;;;;;;58.63;35.33;;;128.00;1996.80;;;;;;5034052;28;20455;-63
2021/03/19 03:12:50;;;;;;;57.40;33.08;;;128.00;1996.80;;;;;;5034015;28;20084;-63
2021/03/19 03:15:19;;;;;;;53.90;30.65;;;128.00;1996.80;;;;;;5033824;28;20057;-63
2021/03/19 03:17:46;;;;;;;52.97;30.15;;;128.10;1996.80;;;;;;5033943;28;20021;-63
2021/03/19 03:20:20;;;;;;;52.78;31.65;;;128.00;1996.80;;;;;;5034083;28;20112;-63
2021/03/19 03:22:45;;;;;;;51.88;29.83;;;128.10;1996.80;;;;;;5033604;28;20047;-63
2021/03/19 03:25:14;;;;;;;49.20;28.52;;;128.00;1996.80;;;;;;5033602;28;20506;-64
2021/03/19 03:27:40;;;;;;;51.70;29.05;;;128.00;1996.80;;;;;;5033591;28;20025;-64
2021/03/19 03:30:10;;;;;;;48.70;27.17;;;128.00;1996.80;;;;;;5033728;28;20026;-64
2021/03/19 03:32:36;;;;;;;48.50;27.77;;;128.00;1996.80;;;;;;5033694;28;20025;-63
2021/03/19 03:35:05;;;;;;;50.13;27.60;;;128.00;1996.80;;;;;;5032275;28;20152;-64
2021/03/19 03:37:30;;;;;;;41.63;27.05;;;128.00;1996.80;;;;;;5033656;28;20475;-64
2021/03/19 03:39:56;;;;;;;46.03;26.73;;;128.00;1996.80;;;;;;5033701;28;20026;-64
2021/03/19 03:42:22;;;;;;;48.90;29.92;;;128.00;1996.80;;;;;;5033752;28;20076;-64
2021/03/19 03:44:47;;;;;;;51.28;30.55;;;128.00;1996.80;;;;;;5033474;28;20367;-64
2021/03/19 03:47:13;;;;;;;55.38;31.95;;;128.00;1996.80;;;;;;5033534;28;20029;-63
2021/03/19 03:49:39;;;;;;;51.03;30.45;;;128.00;1971.20;;;;;;5033467;28;20112;-63
2021/03/19 03:52:05;;;;;;;49.75;29.67;;;128.00;1971.20;;;;;;5033520;28;20085;-63
2021/03/19 03:54:31;;;;;;;55.35;31.70;;;128.00;1971.20;;;;;;5033563;28;20025;-63
2021/03/19 03:56:56;;;;;;;53.22;29.67;;;128.00;1971.20;;;;;;5033522;28;20379;-62
2021/03/19 03:59:22;;;;;;;49.88;30.30;;;128.00;1971.20;;;;;;5033187;28;20044;-63
2021/03/19 04:01:49;;;;;;;51.22;30.15;;;128.00;1971.20;;;;;;5033707;28;20032;-63
2021/03/19 04:04:17;;;;;;;54.03;30.15;;;128.00;1971.20;;;;;;5033429;28;20033;-63
2021/03/19 04:06:43;;;;;;;50.33;30.55;;;128.00;1996.80;;;;;;5033525;28;20199;-63
2021/03/19 04:09:09;;;;;;;56.05;29.23;;;128.00;1971.20;;;;;;5033276;28;20379;-63
2021/03/19 04:11:35;;;;;;;52.53;29.98;;;128.00;1971.20;;;;;;5033148;28;20494;-63
2021/03/19 04:14:00;;;;;;;54.05;29.40;;;128.00;1971.20;;;;;;5032786;28;20037;-63
2021/03/19 04:16:27;;;;;;;51.15;29.42;;;128.00;1996.80;;;;;;5033294;28;20075;-63
2021/03/19 04:18:53;;;;;;;54.75;29.00;;;128.00;1996.80;;;;;;5033241;28;20025;-63
2021/03/19 04:21:19;;;;;;;46.30;26.55;;;128.00;1971.20;;;;;;5033065;28;20025;-62
2021/03/19 04:23:50;;;;;;;47.05;27.98;;;128.00;1996.80;;;;;;5033172;28;20076;-62
2021/03/19 04:26:36;;;;;;;46.22;29.00;;;128.00;1996.80;;;;;;5033135;28;20042;-63
2021/03/19 04:29:03;;;;;;;54.70;31.27;;;128.00;1996.80;;;;;;5033894;28;20136;-63
2021/03/19 04:31:29;;;;;;;67.88;36.72;;;128.00;1996.80;;;;;;5037112;28;20064;-62
2021/03/19 04:33:55;;;;;;;66.38;38.78;;;128.00;1996.80;;;;;;5019353;28;20026;-63
2021/03/19 04:36:47;;;;;;;56.03;33.95;;;128.00;1996.80;;;;;;5036730;28;20486;-63
2021/03/19 04:39:20;;;;;;;57.38;32.42;;;128.00;1996.80;;;;;;5037024;28;20037;-63
2021/03/19 04:41:50;;;;;;;50.65;29.58;;;128.00;1996.80;;;;;;5036836;28;20486;-63
2021/03/19 04:44:16;;;;;;;53.67;31.15;;;128.10;1996.80;;;;;;5036703;28;20017;-62
2021/03/19 04:46:42;;;;;;;50.92;30.52;;;128.10;1996.80;;;;;;5036572;28;20025;-62
2021/03/19 04:49:08;;;;;;;50.42;30.35;;;128.10;1996.80;;;;;;5036627;28;20040;-63
2021/03/19 04:51:34;;;;;;;52.50;32.92;;;128.10;2022.40;;;;;;5036781;28;20022;-62
2021/03/19 04:54:00;;;;;;;55.03;33.65;;;128.10;1996.80;;;;;;5037294;28;20426;-63
2021/03/19 04:56:26;;;;;;;49.88;30.77;;;128.10;1996.80;;;;;;5036655;28;20100;-63
2021/03/19 04:58:52;;;;;;;56.45;32.65;;;128.10;1996.80;;;;;;5036298;28;20117;-63
2021/03/19 05:01:19;;;;;;;48.05;30.75;;;128.10;1996.80;;;;;;5036644;28;20503;-63
2021/03/19 05:03:46;;;;;;;51.45;30.50;;;128.10;1996.80;;;;;;5036412;28;20032;-63
2021/03/19 05:06:13;;;;;;;51.67;29.52;;;128.10;1996.80;;;;;;5036955;28;20036;-63
2021/03/19 05:08:40;;;;;;;39.75;26.95;;;128.10;1996.80;;;;;;5036391;28;20115;-63
2021/03/19 05:11:06;;;;;;;42.47;27.17;;;128.10;2022.40;;;;;;5036588;28;20017;-63
2021/03/19 05:13:32;;;;;;;41.70;25.15;;;128.10;2022.40;;;;;;5036269;28;20025;-62
2021/03/19 05:15:57;;;;;;;49.72;33.25;;;128.20;2022.40;;;;;;5036323;28;20022;-63
2021/03/19 05:18:23;;;;;;;51.10;32.33;;;128.10;2048.00;;;;;;5036297;28;20041;-63
2021/03/19 05:20:49;;;;;;;52.13;30.65;;;128.10;2048.00;;;;;;5036240;28;20049;-63
2021/03/19 05:23:17;;;;;;;50.65;32.58;;;128.10;2022.40;;;;;;5036289;28;20026;-63
2021/03/19 05:25:43;;;;;;;50.03;30.92;;;128.10;2048.00;;;;;;5036208;28;20503;-63
2021/03/19 05:28:09;;;;;;;53.95;32.50;;;128.10;2048.00;;;;;;5035803;28;20063;-63
2021/03/19 05:30:34;;;;;;;51.80;30.33;;;128.10;2048.00;;;;;;5017708;28;20033;-62
2021/03/19 05:33:03;;;;;;;52.25;32.75;;;128.10;2048.00;;;;;;5035659;28;20021;-62
2021/03/19 05:35:29;;;;;;;55.70;31.77;;;128.10;2048.00;;;;;;5035818;28;20025;-65
2021/03/19 05:37:56;;;;;;;54.67;32.35;;;128.10;2048.00;;;;;;5036009;28;20072;-62
2021/03/19 05:40:45;;;;;;;56.47;33.45;;;128.10;2073.60;;;;;;5034845;28;20064;-62
2021/03/19 05:43:24;;;;;;;50.50;31.35;;;128.10;2048.00;;;;;;5035130;28;20030;-67
2021/03/19 05:46:10;;;;;;;58.20;33.88;;;128.20;2048.00;;;;;;5035931;28;20022;-63
2021/03/19 05:48:54;;;;;;;61.13;41.25;;;128.20;2048.00;;;;;;5035549;28;20041;-68
2021/03/19 05:51:25;;;;;;;57.08;36.83;;;128.20;2048.00;;;;;;5035816;28;20129;-62
2021/03/19 05:53:57;;;;;;;52.05;34.03;;;128.30;2048.00;;;;;;5035447;28;20060;-63
2021/03/19 05:56:30;;;;;;;46.17;30.73;;;128.30;2048.00;;;;;;5017582;28;20040;-62
2021/03/19 05:58:55;;;;;;;46.63;29.95;;;128.30;2048.00;;;;;;5035428;28;20065;-62
2021/03/19 06:01:22;;;;;;;48.88;30.90;;;128.40;2048.00;;;;;;5035177;28;20483;-63
2021/03/19 06:03:48;;;;;;;47.60;31.65;;;128.40;2048.00;;;;;;5035122;28;20025;-66
2021/03/19 06:06:15;;;;;;;53.38;34.75;;;128.40;2048.00;;;;;;5035238;28;20025;-62
2021/03/19 06:08:48;;;;;;;53.15;36.13;;;128.50;2048.00;;;;;;5035273;28;20037;-63
2021/03/19 06:11:21;;;;;;;67.32;47.90;;;128.50;2048.00;;;;;;5035340;28;20017;-62
2021/03/19 06:13:50;;;;;;;53.65;40.55;;;128.50;2048.00;;;;;;5035102;28;20025;-68
2021/03/19 06:16:30;;;;;;;46.10;34.25;;;128.70;2048.00;;;;;;5034971;28;20029;-62
2021/03/19 06:18:58;;;;;;;68.80;43.85;;;128.70;2048.00;;;;;;5035029;28;20087;-68
2021/03/19 06:21:31;;;;;;;50.97;33.45;;;128.80;2022.40;;;;;;5034866;28;20033;-69
2021/03/19 06:24:24;;;;;;;42.10;28.83;;;128.90;2022.40;;;;;;5034857;28;20025;-67
2021/03/19 06:26:52;;;;;;;41.78;26.95;;;128.90;2022.40;;;;;;5034770;28;20045;-63
2021/03/19 06:29:27;;;;;;;46.75;30.48;;;153.60;2022.40;;;;;;5034088;28;20037;-67
2021/03/19 06:32:04;;;;;;;44.50;28.50;;;153.60;1996.80;;;;;;5030871;28;20235;-63
2021/03/19 06:34:30;;;;;;;45.20;29.42;;;153.70;1996.80;;;;;;5033399;28;20028;-62
2021/03/19 06:37:06;;;;;;;53.95;36.63;;;153.80;1996.80;;;;;;5033384;28;20022;-66
2021/03/19 06:39:33;;;;;;;49.03;34.50;;;153.90;1996.80;;;;;;5033388;28;20530;-62
2021/03/19 06:42:04;;;;;;;45.58;29.60;;;154.00;1971.20;;;;;;5033163;28;20026;-62
2021/03/19 06:44:30;;;;;;;43.60;27.48;;;154.10;1945.60;;;;;;5033388;28;20025;-62
2021/03/19 06:46:59;;;;;;;43.47;27.17;;;154.20;1920.00;;;;;;5033032;28;20033;-64
2021/03/19 06:49:28;;;;;;;41.47;26.05;;;154.40;1894.40;;;;;;5033056;28;20034;-63
2021/03/19 06:52:24;;;;;;;40.53;25.60;;;179.20;1868.80;;;;;;5032511;28;20113;-62
2021/03/19 06:54:52;;;;;;;42.40;25.27;;;179.20;1843.20;;;;;;4942711;28;20110;-63
2021/03/19 06:57:20;;;;;;;42.10;25.17;;;179.50;1817.60;;;;;;4934540;29;20039;-63
2021/03/19 06:59:54;;;;;;;52.75;28.08;;;179.50;1817.60;;;;;;4934707;29;20083;-73
2021/03/19 07:02:32;;;;;;;48.50;25.65;;;179.60;1766.40;;;;;;4935136;29;20131;-74
2021/03/19 07:05:22;;;;;;;40.75;25.23;;;179.70;1740.80;;;;;;4935091;29;20031;-74
2021/03/19 07:07:57;;;;;;;34.65;21.65;;;179.70;1689.60;;;;;;4934588;29;20083;-63
2021/03/19 07:10:34;;;;;;;34.15;19.08;;;179.80;1664.00;;;;;;4934798;29;20394;-63
2021/03/19 07:13:27;;;;;;;31.77;17.65;;;179.80;1638.40;;;;;;4934885;29;20382;-64
2021/03/19 07:16:14;;;;;;;24.45;15.90;;;179.80;1612.80;;;;;;4936470;29;20032;-63
2021/03/19 07:19:11;;;;;;;28.27;18.42;;;179.90;1561.60;;;;;;4943692;29;20078;-63
2021/03/19 07:22:00;;;;;;;30.88;18.23;;;180.10;1561.60;;;;;;4943790;29;20455;-62
2021/03/19 07:24:29;;;;;;;32.85;16.60;;;204.80;1561.60;;;;;;4941528;29;20042;-62
2021/03/19 07:27:13;;;;;;;41.25;23.63;;;204.80;1561.60;;;;;;4943109;28;20074;-65
2021/03/19 07:30:10;;;;;;;37.45;20.90;;;204.90;1510.40;;;;;;4943130;29;20035;-72
2021/03/19 07:32:45;;;;;;;26.48;15.60;;;204.90;1536.00;;;;;;5030670;28;20029;-62
2021/03/19 07:35:20;;;;;;;28.05;16.40;;;205.00;1510.40;;;;;;5030145;28;20371;-62
2021/03/19 07:38:13;;;;;;;32.05;18.52;;;205.10;1510.40;;;;;;5031329;28;20421;-62
2021/03/19 07:40:57;;;;;;;33.50;18.92;;;205.10;1484.80;;;;;;5030972;28;20028;-62
2021/03/19 07:43:46;;;;;;;39.42;19.90;;;205.10;1459.20;;;;;;5014029;28;20058;-74
2021/03/19 07:46:35;;;;;;;39.72;23.80;;;205.10;1459.20;;;;;;5014038;28;20027;-64
2021/03/19 07:49:20;;;;;;;65.05;37.92;;;205.10;1459.20;;;;;;5014049;28;20060;-64
2021/03/19 07:52:14;;;;;;;87.70;28.80;;;205.20;1561.60;;;;;;5013823;28;20026;-65
2021/03/19 07:55:00;;;;;;;31.90;18.45;;;205.30;1433.60;;;;;;5013872;28;20061;-64
2021/03/19 07:57:47;;;;;;;29.63;16.23;;;205.50;1459.20;;;;;;5013859;28;20030;-66
2021/03/19 08:00:29;;;;;;;30.77;17.63;;;205.60;1433.60;;;;;;5013481;28;20357;-65
2021/03/19 08:03:01;;;;;;;43.22;15.02;;;205.70;1382.40;;;;;;5013903;28;20080;-66
2021/03/19 08:05:56;;;;;;;23.25;11.27;;;230.40;1382.40;;;;;;5017340;28;20022;-65
2021/03/19 08:08:28;;;;;;;;;;;230.50;1331.20;;;;;;4957793;28;20113;-69
2021/03/19 08:11:28;;;;;;;24.23;11.85;;;230.50;1331.20;;;;;;4957335;28;19928;-73
2021/03/19 08:14:03;;;;;;;17.10;9.10;;;230.50;1356.80;;;;;;4957456;29;20066;-68
2021/03/19 08:16:40;;;;;;;17.95;10.30;;;230.50;1305.60;;;;;;4957015;28;20031;-68
2021/03/19 08:19:23;;;;;;;31.40;14.57;;;230.50;1305.60;;;;;;4957111;28;20078;-69
2021/03/19 08:22:19;;;;;;;16.85;9.85;;;230.60;1331.20;;;;;;4957119;29;20100;-72
2021/03/19 08:25:17;;;;;;;14.82;9.93;;;230.70;1280.00;;;;;;4956706;28;20035;-73
2021/03/19 08:27:56;;;;;;;25.27;15.32;;;230.70;1254.40;;;;;;4957390;28;20409;-65
2021/03/19 08:30:35;;;;;;;16.75;11.25;;;230.70;1280.00;;;;;;4956844;28;20042;-66
2021/03/19 08:33:21;;;;;;;13.95;9.35;;;230.80;1280.00;;;;;;4971868;28;20051;-70
2021/03/19 08:36:25;;;;;;;15.75;8.85;;;230.80;1280.00;;;;;;4975911;28;20038;-67
2021/03/19 08:39:03;;;;;;;99.28;44.10;;;230.90;1280.00;;;;;;4918677;29;20047;-80
2021/03/19 08:41:36;;;;;;;25.17;13.55;;;230.90;1382.40;;;;;;4918846;29;20035;-66
2021/03/19 08:44:06;;;;;;;20.48;10.95;;;230.90;1280.00;;;;;;4929889;28;20062;-67
2021/03/19 08:46:43;;;;;;;17.33;9.52;;;231.00;1254.40;;;;;;4975794;28;20027;-66
2021/03/19 08:49:39;;;;;;;21.88;12.80;;;231.00;1254.40;;;;;;4975878;28;20559;-75
2021/03/19 08:52:38;;;;;;;139.85;72.38;;;231.00;1254.40;;;;;;4975992;28;20026;-76
2021/03/19 08:55:12;;;;;;;84.68;48.80;;;231.10;1228.80;;;;;;4899310;29;20040;-76
2021/03/19 08:57:42;;;;;;;59.53;28.98;;;231.10;1228.80;;;;;;4899323;29;20032;-71
2021/03/19 09:00:32;;;;;;;127.20;53.92;;;231.10;1228.80;;;;;;4899236;29;20037;-69
2021/03/19 09:03:06;;;;;;;47.97;24.92;;;231.20;1254.40;;;;;;4899672;29;20032;-68
2021/03/19 09:05:37;;;;;;;20.58;12.10;;;231.30;1228.80;;;;;;4899381;29;20033;-73
2021/03/19 09:08:24;;;;;;;74.07;36.95;;;231.30;1228.80;;;;;;4899083;29;20141;-77
2021/03/19 09:10:53;;;;;;;79.63;36.88;;;231.30;1203.20;;;;;;4899208;29;20032;-74
2021/03/19 09:13:21;;;;;;;32.67;19.58;;;231.30;1228.80;;;;;;4899631;29;20133;-69
2021/03/19 09:15:50;;;;;;;31.90;18.05;;;256.00;1203.20;;;;;;4931534;29;20074;-79
2021/03/19 09:18:37;;;;;;;42.83;24.33;;;256.10;1177.60;;;;;;4956362;29;20027;-78
2021/03/19 09:21:14;;;;;;;36.70;24.20;;;256.20;1152.00;;;;;;4956776;29;20028;-76
2021/03/19 09:23:56;;;;;;;27.85;14.45;;;256.30;1152.00;;;;;;4956403;29;20058;-80
2021/03/19 09:26:36;;;;;;;28.90;16.80;;;256.50;1152.00;;;;;;4955708;29;20054;-72
2021/03/19 09:29:21;;;;;;;35.40;16.73;;;256.60;1152.00;;;;;;4955735;29;20082;-77
2021/03/19 09:31:56;;;;;;;18.83;10.32;;;256.70;1152.00;;;;;;5009751;28;20030;-65
2021/03/19 09:34:42;;;;;;;21.17;12.82;;;256.80;1100.80;;;;;;5036168;28;20025;-68
2021/03/19 09:37:30;;;;;;;16.77;10.68;;;281.60;1100.80;;;;;;5017902;28;20033;-65
2021/03/19 09:40:08;;;;;;;17.95;10.88;;;282.00;1100.80;;;;;;5035695;28;20025;-76
2021/03/19 09:42:49;;;;;;;11.80;8.40;;;282.30;1049.60;;;;;;5035735;28;20495;-66
2021/03/19 09:45:22;;;;;;;13.32;9.23;;;307.20;1075.20;;;;;;5035513;28;20104;-76
2021/03/19 09:47:51;;;;;;;22.13;10.40;;;307.40;1024.00;;;;;;5017643;28;20021;-72
2021/03/19 09:50:32;;;;;;;19.85;8.32;;;307.50;1024.00;;;;;;5017581;28;20092;-65
2021/03/19 09:53:05;;;;;;;60.33;38.22;;;307.60;998.40;;;;;;5033968;28;20029;-67
2021/03/19 09:55:44;;;;;;;291.10;186.88;;;307.60;1177.60;;;;;;5032740;28;20025;-69
2021/03/19 09:58:21;;;;;;;221.00;134.82;;;307.80;1356.80;;;;;;5034668;28;20022;-72
2021/03/19 10:00:48;;;;;;;220.60;141.18;;;308.10;1305.60;;;;;;5016387;28;20391;-73
2021/03/19 10:03:14;;;;;;;72.85;33.85;;;332.90;1331.20;;;;;;5033829;28;20053;-76
2021/03/19 10:05:43;;;;;;;42.05;13.35;;;333.10;1049.60;;;;;;5034394;28;20171;-76
2021/03/19 10:08:24;;;;;;;13.48;7.50;;;333.10;972.80;;;;;;5034369;28;20175;-75
2021/03/19 10:10:50;;;;;;;25.42;12.80;;;333.10;947.20;;;;;;5034183;28;20083;-66
2021/03/19 10:13:23;;;;;;;14.85;8.55;;;333.10;947.20;;;;;;5034576;28;20022;-72
2021/03/19 10:15:51;;;;;;;14.63;8.07;;;333.10;921.60;;;;;;5034098;28;20032;-67
2021/03/19 10:18:32;;;;;;;11.65;8.00;;;333.20;896.00;;;;;;5033862;28;20036;-70
2021/03/19 10:21:06;;;;;;;11.82;8.30;;;333.40;896.00;;;;;;5033801;28;20057;-70
2021/03/19 10:23:44;;;;;;;13.82;9.73;;;333.60;896.00;;;;;;5033733;28;20032;-69
2021/03/19 10:26:22;;;;;;;20.13;11.68;;;333.70;896.00;;;;;;5033664;28;20064;-74
2021/03/19 10:29:02;;;;;;;26.83;17.63;;;333.70;870.40;;;;;;5033849;28;20029;-77
2021/03/19 10:31:28;;;;;;;42.60;14.18;;;333.70;921.60;;;;;;5033507;28;20025;-68
2021/03/19 10:33:59;;;;;;;27.88;12.82;;;333.70;896.00;;;;;;5033405;28;20102;-72
2021/03/19 10:36:52;;;;;;;12.07;7.88;;;333.60;870.40;;;;;;5016090;28;20029;-71
2021/03/19 10:39:34;;;;;;;7.75;5.72;;;333.40;844.80;;;;;;5033696;28;20096;-72
2021/03/19 10:42:14;;;;;;;10.82;6.68;;;333.30;819.20;;;;;;5033602;28;20044;-73
2021/03/19 10:45:04;;;;;;;11.73;7.07;;;333.30;844.80;;;;;;5033743;28;20024;-71
2021/03/19 10:47:36;;;;;;;10.40;6.63;;;333.40;844.80;;;;;;5033366;28;20045;-73
2021/03/19 10:50:09;;;;;;;18.83;8.65;;;333.60;819.20;;;;;;5015825;28;20069;-71
2021/03/19 10:52:40;;;;;;;11.93;7.38;;;358.40;819.20;;;;;;5033480;28;20067;-67
2021/03/19 10:55:13;;;;;;;10.30;6.40;;;358.60;793.60;;;;;;5033089;28;20026;-69
2021/03/19 10:57:41;;;;;;;12.50;8.02;;;358.70;793.60;;;;;;5033405;28;20017;-72
2021/03/19 11:00:31;;;;;;;12.52;8.63;;;358.90;793.60;;;;;;5033289;28;20379;-71
2021/03/19 11:03:00;;;;;;;16.60;8.48;;;359.10;793.60;;;;;;5033055;28;20438;-68
2021/03/19 11:05:26;;;;;;;10.90;6.65;;;359.20;793.60;;;;;;5033224;28;20030;-68
2021/03/19 11:07:52;;;;;;;8.98;6.25;;;359.30;768.00;;;;;;5033005;28;20029;-69
2021/03/19 11:10:48;;;;;;;10.68;7.07;;;384.10;768.00;;;;;;5031707;28;20042;-72
2021/03/19 11:13:14;;;;;;;9.43;5.88;;;384.20;768.00;;;;;;5033126;28;20029;-72
2021/03/19 11:15:45;;;;;;;8.85;6.47;;;384.30;742.40;;;;;;5015206;28;20541;-72
2021/03/19 11:18:17;;;;;;;12.80;6.50;;;384.40;742.40;;;;;;5033339;28;20033;-69
2021/03/19 11:21:05;;;;;;;8.40;6.00;;;384.40;742.40;;;;;;5033146;28;20025;-73
2021/03/19 11:23:36;;;;;;;11.52;6.88;;;384.40;742.40;;;;;;4952385;29;20042;-68
2021/03/19 11:26:13;;;;;;;11.15;7.97;;;384.60;768.00;;;;;;4952707;29;20058;-69
2021/03/19 11:28:42;;;;;;;12.00;8.10;;;384.70;768.00;;;;;;4936568;29;20050;-71
2021/03/19 11:31:21;;;;;;;23.65;14.73;;;384.80;742.40;;;;;;4952692;29;20470;-68
2021/03/19 11:34:00;;;;;;;39.10;21.95;;;384.80;742.40;;;;;;4952590;28;20031;-66
2021/03/19 11:36:28;;;;;;;29.50;12.73;;;384.90;742.40;;;;;;4952798;29;20057;-77
2021/03/19 11:39:09;;;;;;;20.33;12.05;;;384.90;742.40;;;;;;4951516;28;20540;-71
2021/03/19 11:41:40;;;;;;;20.27;12.05;;;409.60;742.40;;;;;;4952589;29;20094;-69
2021/03/19 11:44:06;;;;;;;10.48;7.78;;;384.80;716.80;;;;;;4951980;29;20079;-73
2021/03/19 11:46:31;;;;;;;11.27;8.45;;;384.70;716.80;;;;;;4951500;29;20465;-68
2021/03/19 11:48:58;;;;;;;14.98;9.25;;;384.50;716.80;;;;;;4952412;29;20043;-68
2021/03/19 11:51:31;;;;;;;9.82;6.57;;;384.30;768.00;;;;;;4935933;29;20031;-67
2021/03/19 11:53:58;;;;;;;9.55;6.70;;;384.20;768.00;;;;;;4952053;29;20512;-69
2021/03/19 11:56:25;;;;;;;9.90;5.82;;;384.00;742.40;;;;;;4952580;29;20038;-70
2021/03/19 11:58:51;;;;;;;6.45;5.03;;;359.30;742.40;;;;;;4952256;29;20467;-71
2021/03/19 12:01:18;;;;;;;6.60;5.30;;;359.20;742.40;;;;;;5014957;28;20033;-68
2021/03/19 12:03:47;;;;;;;30.00;18.67;;;359.10;742.40;;;;;;5032363;28;20471;-69
2021/03/19 12:06:15;;;;;;;27.85;16.08;;;359.20;742.40;;;;;;5032896;28;20108;-67
2021/03/19 12:08:41;;;;;;;24.55;19.27;;;359.10;768.00;;;;;;5032341;28;20041;-69
2021/03/19 12:11:10;;;;;;;16.85;13.27;;;359.10;768.00;;;;;;5032689;28;20045;-68
2021/03/19 12:13:36;;;;;;;9.73;7.43;;;359.00;768.00;;;;;;5032572;28;20025;-68
2021/03/19 12:16:03;;;;;;;42.38;8.90;;;358.90;768.00;;;;;;5032313;28;20026;-72
2021/03/19 12:18:29;;;;;;;20.90;8.88;;;358.60;819.20;;;;;;5032449;28;20047;-73
2021/03/19 12:20:56;;;;;;;17.45;11.05;;;358.60;793.60;;;;;;5032726;28;20101;-73
2021/03/19 12:23:22;;;;;;;14.45;9.43;;;358.40;819.20;;;;;;5032252;28;20084;-73
2021/03/19 12:25:48;;;;;;;14.63;9.52;;;333.60;844.80;;;;;;5031555;28;20053;-71
2021/03/19 12:28:19;;;;;;;14.52;10.02;;;333.30;844.80;;;;;;5032136;28;20033;-66
2021/03/19 12:30:46;;;;;;;21.15;17.60;;;333.20;870.40;;;;;;5031404;28;20034;-70
2021/03/19 12:33:12;;;;;;;19.58;13.20;;;332.90;896.00;;;;;;5032333;28;20025;-70
2021/03/19 12:35:41;;;;;;;21.83;14.68;;;332.80;921.60;;;;;;5032406;28;20036;-72